EDT,Max TemperatureF,Mean TemperatureF,Min TemperatureF,Max Dew PointF,MeanDew PointF,Min DewpointF,Max Humidity, Mean Humidity, Min Humidity, Max Sea Level PressureIn, Mean Sea Level PressureIn, Min Sea Level PressureIn, Max VisibilityMiles, Mean VisibilityMiles, Min VisibilityMiles, Max Wind SpeedMPH, Mean Wind SpeedMPH, Max Gust SpeedMPH,PrecipitationIn, CloudCover, Events, WindDirDegrees
2012-9-1,76,68,59,68,61,55,88,74,57,30.13,30.00,29.85,10,10,10,18,8,21,0.00,1,,38
2012-9-2,73,66,59,63,57,46,100,73,38,30.15,30.10,30.05,10,10,10,12,6,,0.00,4,,115
2012-9-3,73,64,55,63,57,54,100,80,47,30.23,30.19,30.14,10,10,1,13,6,17,0.00,0,Rain,106
2012-9-4,75,68,60,72,66,57,100,89,73,30.18,30.06,29.93,10,9,2,16,7,23,0.00,8,Rain-Thunderstorm,164
2012-9-5,77,72,66,73,72,64,100,95,88,29.92,29.82,29.77,10,8,1,25,15,34,1.11,8,Rain-Thunderstorm,223
2012-9-6,75,67,59,66,63,59,100,87,65,29.92,29.89,29.83,10,10,1,10,5,,0.00,2,Rain-Thunderstorm,135
2012-9-7,78,70,62,72,69,61,100,90,69,29.95,29.93,29.88,10,9,2,14,6,16,0.00,6,Thunderstorm,219
2012-9-8,78,74,69,73,72,68,100,90,78,29.94,29.82,29.70,10,10,2,25,13,34,0.02,7,Rain,188
2012-9-9,73,64,55,72,59,54,100,86,62,29.85,29.80,29.72,10,10,6,14,6,,0.04,3,Rain,343
2012-9-10,68,60,51,58,51,45,100,73,43,30.03,29.91,29.83,10,10,10,20,7,22,0.00,3,,344
2012-9-11,68,58,48,52,46,41,88,67,34,30.28,30.19,30.04,10,10,10,12,7,,0.00,0,Rain,303
2012-9-12,73,60,48,59,53,48,100,75,44,30.39,30.35,30.29,10,10,10,10,5,,0.00,0,,258
2012-9-13,75,63,51,62,57,50,100,80,47,30.40,30.35,30.30,10,10,0,14,5,20,0.00,0,Fog,224
2012-9-14,77,67,57,66,61,57,100,84,57,30.30,30.22,30.12,10,9,0,16,7,23,0.00,1,Fog,218
2012-9-15,71,63,55,66,58,45,100,79,39,30.12,30.03,29.98,10,10,2,15,6,20,0.00,4,Rain,295
2012-9-16,68,58,48,53,47,45,94,69,43,30.09,30.05,30.00,10,10,9,13,5,20,0.00,1,,310
2012-9-17,69,55,41,56,48,41,100,74,46,30.11,30.08,30.05,10,10,2,14,3,17,0.00,0,,248
2012-9-18,73,62,50,68,60,48,100,83,69,30.09,29.97,29.82,10,10,9,28,9,37,0.00,3,,173
2012-9-19,71,63,55,68,56,46,100,76,36,30.17,29.96,29.77,10,8,1,26,15,38,0.08,4,Rain,344
2012-9-20,65,58,50,54,48,46,94,71,48,30.23,30.19,30.14,10,10,10,17,10,23,0.00,0,,46
2012-9-21,64,55,46,62,53,46,100,87,64,30.16,30.10,30.00,10,9,2,20,7,21,0.01,3,Rain,39
2012-9-22,69,63,57,63,58,54,100,89,56,29.99,29.94,29.88,10,7,1,15,8,18,0.00,5,,280
2012-9-23,71,62,51,66,54,41,100,73,40,30.09,29.95,29.83,10,10,7,18,11,24,0.00,3,Thunderstorm,288
2012-9-24,66,56,44,47,42,37,93,63,32,30.14,30.10,30.08,10,10,6,15,6,18,0.00,1,,330
2012-9-25,69,54,39,55,47,37,100,73,43,30.22,30.18,30.14,10,10,9,24,6,33,0.00,1,,224
2012-9-26,73,66,59,65,60,55,94,80,61,30.19,30.11,30.04,10,10,10,25,12,37,0.00,5,Rain,215
2012-9-27,71,60,50,65,56,46,100,82,56,30.24,30.13,30.02,10,10,5,18,10,25,0.00,3,,15
2012-9-28,65,58,50,64,53,46,100,84,62,30.24,30.13,29.94,10,9,2,20,8,25,0.12,7,Rain-Thunderstorm,108
2012-9-29,66,60,55,65,57,54,100,96,86,29.93,29.90,29.87,10,8,0,12,5,16,0.47,8,Fog-Rain-Thunderstorm,1
2012-9-30,62,58,53,58,55,52,100,95,75,29.90,29.80,29.74,10,8,1,17,7,17,0.39,6,Rain,330